This is the latest recevied weather packets stored in our database for station/object BV3BA-13. If no packets are shown the sender has not sent any weather packets the latest 10 day(s).
| Time | Temp. | Humidity | Pressure | Rain* | Wind** | Luminosity | Snow |
|---|---|---|---|---|---|---|---|
| 1777932424 | 18.33° C | 95% | 1011.1 hPa | 3.05 mm | - | - | - |
| 1777931824 | 18.33° C | 95% | 1011.1 hPa | 3.05 mm | - | - | - |
| 1777931224 | 18.33° C | 95% | 1010.9 hPa | 1.52 mm | - | - | - |
| 1777930623 | 18.33° C | 94% | 1010.8 hPa | 1.02 mm | - | - | - |
| 1777930023 | 18.33° C | 94% | 1010.7 hPa | 0.51 mm | - | - | - |
| 1777929424 | 18.33° C | 93% | 1010.6 hPa | 0.51 mm | - | - | - |
| 1777928823 | 18.33° C | 92% | 1010.5 hPa | 1.02 mm | - | - | - |
| 1777928223 | 18.33° C | 93% | 1010.5 hPa | 1.02 mm | - | - | - |
| 1777927623 | 18.33° C | 92% | 1010.5 hPa | 1.02 mm | - | - | - |
| 1777927024 | 18.33° C | 93% | 1010.4 hPa | 1.52 mm | - | - | - |
| 1777926423 | 18.33° C | 91% | 1010.4 hPa | 1.52 mm | - | - | - |
| 1777925823 | 18.33° C | 90% | 1010.2 hPa | 1.02 mm | - | - | - |
| 1777925224 | 18.89° C | 89% | 1010.1 hPa | 0.51 mm | - | - | - |
| 1777924624 | 18.89° C | 88% | 1010.1 hPa | 0.51 mm | - | - | - |
| 1777924023 | 18.89° C | 86% | 1010 hPa | 0.51 mm | - | - | - |
| 1777923424 | 18.89° C | 86% | 1009.8 hPa | 0 mm | - | - | - |
| 1777922824 | 18.89° C | 86% | 1009.8 hPa | 0 mm | - | - | - |
| 1777922224 | 18.89° C | 86% | 1009.9 hPa | 0 mm | - | - | - |
| 1777921624 | 18.89° C | 86% | 1009.9 hPa | 0 mm | - | - | - |
| 1777921024 | 18.33° C | 86% | 1009.9 hPa | 0 mm | - | - | - |
| 1777920423 | 18.33° C | 86% | 1010 hPa | 0 mm | - | - | - |
| 1777919823 | 18.33° C | 85% | 1010.1 hPa | 0 mm | - | - | - |
| 1777919224 | 18.33° C | 85% | 1010.2 hPa | 0 mm | - | - | - |
| 1777918623 | 18.33° C | 85% | 1010.2 hPa | 0 mm | - | - | - |
| 1777918023 | 18.89° C | 84% | 1010.3 hPa | 0 mm | - | - | - |
* Rain latest hour (hover to see other rain measurements)
** Current wind speed in m/s (hover to see current wind gust speed)